CLYO2: Little River nr Cloudy 5ENE

                                SHEF ID:       CLYO2     Little River nr Cloudy 5ENE
STATION TYPE:

PRECIP STAGE RIV-FLOW VOLTAGE BAT-LOAD
in ft cfs volt volt
Ccp-Rev Ccp-Rev Ccp-Rev Ccp-Rev Ccp-Rev
(America/Chicago)
04/29 00:00 0.00 4.96 474 12.80 12.59
04/29 01:00 0.00 4.94 457 12.78 12.56
04/29 02:00 0.00 4.92 441 12.76 12.53
04/29 03:00 0.00 4.91 433 12.73 12.50
04/29 04:00 0.00 4.89 418 12.72 12.48
04/29 05:00 0.00 4.87 403 12.70 12.46
04/29 06:00 0.00 4.86 395 12.70 12.44
04/29 07:00 0.00 4.87 403 12.67 12.44
04/29 08:00 0.00 4.85 388 12.95 12.44
04/29 09:00 0.00 4.83 374 13.26 12.68
04/29 10:00 0.00 4.81 360 13.95 13.01
04/29 11:00 0.00 4.79 346 13.62 13.59
04/29 12:00 0.00 4.77 333 13.85 13.32
04/29 13:00 0.00 4.75 320 13.81 13.31
04/29 14:00 0.00 4.71 295 13.70 13.27
04/29 15:00 0.00 4.70 289 13.64 13.23
04/29 16:00 0.00 4.69 283 14.08 13.19
04/29 17:00 0.00 4.68 277 14.17 13.16
04/29 18:00 0.00 4.65 260 13.76 13.13
04/29 19:00 0.00 4.64 255 13.35 13.15
04/29 20:00 0.00 4.62 244 13.10 13.06
04/29 21:00 0.00 4.61 239 12.96 12.83
04/29 22:00 0.00 4.61 239 12.88 12.70
04/29 23:00 0.00 4.58 224 12.85 12.63
Data processed at Thu 30Apr2026 04:09 GMT

NOTICE: If you are parsing this page

Please convert to using our Data API. Starting early 2026 we will be migrating to: https://water.usace.army.mil with modern pages rendered in JavaScript. When this migration completes you will no longer be able to scrape this page! CWMSDataAPI (CDA)

Timeseries IDs (TSIDs)

TSIDs used from left to right in the data table
CLDY.Precip-Inc.Total.1Hour.1Hour.Ccp-Rev
CLDY.Stage.Inst.1Hour.0.Ccp-Rev
CLDY.Flow.Inst.1Hour.0.Ccp-Rev
CLDY.Volt-Battery.Inst.1Hour.0.Ccp-Rev
CLDY.Volt-Battery Load.Inst.1Hour.0.Ccp-Rev

                            

All information presented herein is the property of the government of the United States of America and may be revised or deleted at any time without prior notice. Dissemination of this information without the expressed written consent of the Public Affairs Office, Tulsa District U.S. Army Corps of Engineers is strictly prohibited. These data are gathered electronically and, as presented, have NOT undergone any form of quality control. These data are NOT guaranteed to be valid or correct.